createdAt,value
2022-11-10T00:01:48.012Z,23.256
2022-11-10T00:16:49.891Z,24.011
2022-11-10T00:31:51.818Z,22.616
2022-11-10T00:46:53.657Z,21.149
2022-11-10T01:01:55.495Z,21.601
2022-11-10T01:16:57.330Z,20.885
2022-11-10T01:31:59.188Z,22.205
2022-11-10T01:47:01.043Z,21.609
2022-11-10T02:02:02.885Z,21.999
2022-11-10T02:17:04.722Z,21.55
2022-11-10T02:32:06.772Z,20.635
2022-11-10T02:47:08.696Z,21.546
2022-11-10T03:02:10.538Z,21.237
2022-11-10T03:17:12.387Z,20.752
2022-11-10T03:32:14.241Z,21.355
2022-11-10T03:47:16.763Z,20.054
2022-11-10T04:02:18.607Z,20.858
2022-11-10T04:17:20.437Z,19.785
2022-11-10T04:32:22.283Z,20.022
2022-11-10T04:47:24.192Z,20.574
2022-11-10T05:02:26.056Z,19.419
2022-11-10T05:17:27.928Z,19.946
2022-11-10T05:32:29.762Z,19.268
2022-11-10T05:47:31.623Z,19.82
2022-11-10T06:02:33.475Z,19.781
2022-11-10T06:17:35.413Z,19.362
2022-11-10T06:32:37.438Z,19.785
2022-11-10T06:47:39.321Z,18.937
2022-11-10T07:02:41.169Z,19.273
2022-11-10T07:17:43.132Z,18.638
2022-11-10T07:32:44.960Z,18.988
2022-11-10T07:47:46.867Z,18.825
2022-11-10T08:02:48.717Z,18.651
2022-11-10T08:17:50.588Z,18.763
2022-11-10T08:32:52.445Z,18.05
2022-11-10T08:47:54.317Z,19.127
2022-11-10T09:02:56.215Z,19.406
2022-11-10T09:17:58.068Z,17.597
2022-11-10T09:32:59.876Z,18.124
2022-11-10T09:48:01.687Z,17.675
2022-11-10T10:03:03.509Z,18.088
2022-11-10T10:18:05.343Z,18.137
2022-11-10T10:33:07.271Z,17.941
2022-11-10T10:48:09.119Z,18.441
2022-11-10T11:03:10.951Z,17.734
2022-11-10T11:18:12.786Z,18.378
2022-11-10T11:33:14.636Z,18.594
2022-11-10T11:48:16.696Z,18.026
2022-11-10T12:03:18.610Z,18.5
2022-11-10T12:18:20.781Z,17.97
2022-11-10T12:33:22.880Z,18.608
2022-11-10T12:48:25.064Z,18.753
2022-11-10T13:03:27.177Z,18.332
2022-11-10T13:18:29.016Z,18.698
2022-11-10T13:33:30.861Z,18.208
2022-11-10T13:48:32.758Z,19.282
2022-11-10T14:03:34.787Z,19.611
2022-11-10T14:18:36.727Z,19.334
2022-11-10T14:33:38.551Z,19.807
2022-11-10T14:48:40.390Z,19.542
2022-11-10T15:03:42.259Z,20.065
2022-11-10T15:18:44.101Z,20.235
2022-11-10T15:33:45.953Z,20.313
2022-11-10T15:48:47.751Z,21.556
2022-11-10T16:03:49.689Z,20.85
2022-11-10T16:18:51.525Z,21.025
2022-11-10T16:33:53.588Z,20.491
2022-11-10T16:48:55.389Z,21.338
2022-11-10T17:03:57.238Z,21.471
2022-11-10T17:18:59.114Z,21.275
2022-11-10T17:34:01.051Z,22.126
2022-11-10T17:49:03.437Z,22.298
2022-11-10T18:04:05.333Z,22.485
2022-11-10T18:19:07.199Z,22.094
2022-11-10T18:34:09.029Z,23.232
2022-11-10T18:49:10.898Z,22.884
2022-11-10T19:04:12.865Z,24.66
2022-11-10T19:19:14.734Z,24.385
2022-11-10T19:34:16.792Z,23.465
2022-11-10T19:49:18.655Z,23.5
2022-11-10T20:04:20.509Z,25.051
2022-11-10T20:19:22.381Z,24.534
2022-11-10T20:34:24.241Z,25.249
2022-11-10T20:49:26.065Z,23.313
2022-11-10T21:04:27.989Z,22.961
2022-11-10T21:19:29.861Z,22.465
2022-11-10T21:34:31.692Z,22.003
2022-11-10T21:49:33.566Z,21.775
2022-11-10T22:04:35.463Z,21.282
2022-11-10T22:19:37.311Z,21.125
2022-11-10T22:34:39.165Z,20.904
2022-11-10T22:49:41.070Z,20.138
2022-11-10T23:04:42.934Z,20.389
2022-11-10T23:19:44.816Z,20.528
2022-11-10T23:34:46.714Z,20.351
2022-11-10T23:49:48.562Z,20.222
